Time;durP1;ratioP1;P1;durP2;ratioP2;P2;SDS_P1;SDS_P2;PMS_P1;PMS_P2;Temp;Humidity;BMP_temperature;BMP_pressure;BME280_temperature;BME280_humidity;BME280_pressure;Samples;Min_cycle;Max_cycle;Signal;HPM_P1;HPM_P2
2022/04/16 00:01:09;;;;;;;30.90;21.13;;;;;;;;;;4799444;30;20039;-60
2022/04/16 00:03:35;;;;;;;33.63;21.50;;;;;;;;;;4799779;30;20120;-59
2022/04/16 00:06:01;;;;;;;36.33;22.17;;;6.90;99.90;;;;;;4798535;29;20071;-60
2022/04/16 00:08:28;;;;;;;38.70;22.05;;;6.90;99.90;;;;;;4799080;30;20109;-59
2022/04/16 00:10:54;;;;;;;34.83;22.25;;;7.40;99.90;;;;;;4799848;30;20050;-59
2022/04/16 00:13:21;;;;;;;34.58;22.58;;;7.00;99.90;;;;;;4798928;30;20052;-60
2022/04/16 08:38:49;;;;;;;7.82;4.00;;;12.20;98.00;;;;;;4816193;24;20673;-57
2022/04/16 08:41:15;;;;;;;5.45;3.75;;;13.10;92.90;;;;;;4787209;30;20043;-57
2022/04/16 08:43:44;;;;;;;5.43;3.63;;;12.80;94.20;;;;;;4786977;30;20484;-56
2022/04/16 08:46:10;;;;;;;4.65;3.30;;;13.20;90.60;;;;;;4767974;30;20052;-56
2022/04/16 08:48:36;;;;;;;5.55;3.33;;;13.70;79.80;;;;;;4769511;30;20123;-57
2022/04/16 08:51:03;;;;;;;5.10;3.15;;;14.40;91.70;;;;;;4781393;30;20051;-56
2022/04/16 08:53:28;;;;;;;8.40;3.60;;;14.80;82.90;;;;;;4785971;30;20119;-57
2022/04/16 08:55:54;;;;;;;5.53;3.03;;;13.80;87.00;;;;;;4786669;30;20127;-56
2022/04/16 08:58:20;;;;;;;6.70;3.63;;;;;;;;;;4785803;30;20435;-57
2022/04/16 09:00:47;;;;;;;5.70;3.28;;;14.50;85.60;;;;;;4787156;30;20141;-56
2022/04/16 09:03:13;;;;;;;4.57;2.70;;;13.70;83.50;;;;;;4787126;30;20087;-56
2022/04/16 09:05:39;;;;;;;14.60;3.35;;;13.40;83.40;;;;;;4787086;30;20086;-57
2022/04/16 09:08:05;;;;;;;7.47;3.08;;;;;;;;;;4786992;30;20530;-57
2022/04/16 09:10:36;;;;;;;4.97;3.00;;;13.40;82.50;;;;;;4786730;30;20086;-57
2022/04/16 09:13:04;;;;;;;10.90;3.10;;;13.40;76.20;;;;;;4771748;30;20055;-57
2022/04/16 09:15:31;;;;;;;7.18;2.90;;;14.00;85.50;;;;;;4787402;30;20047;-57
2022/04/16 09:18:00;;;;;;;6.15;3.08;;;13.40;75.30;;;;;;4771313;30;20079;-57
2022/04/16 09:20:40;;;;;;;6.97;2.70;;;13.40;68.80;;;;;;4770784;30;20051;-58
2022/04/16 09:23:22;;;;;;;8.63;2.40;;;13.20;59.90;;;;;;4786510;30;20077;-57
2022/04/16 09:25:51;;;;;;;8.50;2.40;;;13.70;75.80;;;;;;4770040;30;20369;-57
2022/04/16 09:28:18;;;;;;;2.58;2.08;;;13.40;59.10;;;;;;4785293;29;20051;-57
2022/04/16 09:30:55;;;;;;;5.70;2.00;;;13.20;75.00;;;;;;4783220;29;20058;-57
2022/04/16 09:33:22;;;;;;;4.20;1.85;;;;;;;;;;4785820;29;20512;-56
2022/04/16 09:35:55;;;;;;;28.85;3.53;;;13.50;75.50;;;;;;4785666;30;20051;-57
2022/04/16 09:38:20;;;;;;;3.03;1.70;;;13.40;59.40;;;;;;4769196;30;20525;-56
2022/04/16 09:40:47;;;;;;;6.43;2.00;;;13.30;60.00;;;;;;4770093;30;20051;-57
2022/04/16 09:43:13;;;;;;;3.20;1.98;;;13.10;73.70;;;;;;4786230;30;20069;-56
2022/04/16 09:45:40;;;;;;;3.88;2.10;;;13.30;57.30;;;;;;4786324;30;20051;-56
2022/04/16 09:48:13;;;;;;;3.50;1.67;;;13.20;73.80;;;;;;4786551;30;20446;-57
2022/04/16 09:50:41;;;;;;;4.07;2.13;;;13.30;72.10;;;;;;4769835;30;20099;-57
2022/04/16 09:53:07;;;;;;;5.10;1.98;;;13.20;68.40;;;;;;4783929;29;20134;-57
2022/04/16 09:55:34;;;;;;;3.67;2.00;;;;;;;;;;4784382;29;20056;-57
2022/04/16 09:58:05;;;;;;;4.88;1.90;;;13.00;56.90;;;;;;4785677;30;20121;-57
2022/04/16 10:00:38;;;;;;;4.30;1.90;;;13.10;54.90;;;;;;4767636;30;20141;-57
2022/04/16 10:03:08;;;;;;;4.88;1.77;;;12.90;53.30;;;;;;4770029;30;20523;-57
2022/04/16 10:05:34;;;;;;;6.40;2.00;;;12.90;70.10;;;;;;4785815;29;20044;-56
2022/04/16 10:08:00;;;;;;;3.15;1.70;;;13.00;71.30;;;;;;4786271;30;20058;-56
2022/04/16 10:10:37;;;;;;;3.33;1.80;;;;;;;;;;4754539;30;20492;-56
2022/04/16 10:13:12;;;;;;;8.88;1.80;;;13.60;55.20;;;;;;4785809;30;20412;-56
2022/04/16 10:15:57;;;;;;;4.50;1.60;;;13.90;70.00;;;;;;4785768;30;20039;-56
2022/04/16 10:18:24;;;;;;;5.78;1.90;;;13.80;54.40;;;;;;4785442;30;20086;-56
2022/04/16 10:20:58;;;;;;;2.67;1.52;;;13.90;67.30;;;;;;4787105;30;20047;-56
2022/04/16 10:23:41;;;;;;;2.22;1.40;;;14.00;53.60;;;;;;4786320;30;20043;-56
2022/04/16 10:26:12;;;;;;;3.60;1.60;;;14.00;52.40;;;;;;4786293;30;20134;-56
2022/04/16 10:28:40;;;;;;;14.90;2.17;;;13.80;67.50;;;;;;4770623;30;20122;-56
2022/04/16 10:31:18;;;;;;;3.40;1.80;;;13.80;51.10;;;;;;4786889;30;20054;-56
2022/04/16 10:33:59;;;;;;;3.05;1.80;;;13.70;65.70;;;;;;4786927;30;20043;-56
2022/04/16 10:36:32;;;;;;;3.05;1.70;;;13.80;66.70;;;;;;4770242;30;20400;-57
2022/04/16 10:39:00;;;;;;;4.78;1.85;;;13.00;52.60;;;;;;4786483;30;20468;-56
2022/04/16 10:41:27;;;;;;;3.30;2.00;;;13.30;51.80;;;;;;4786242;30;20058;-57
2022/04/16 10:43:55;;;;;;;3.08;1.80;;;13.60;69.10;;;;;;4786921;30;20057;-56
2022/04/16 10:46:21;;;;;;;7.80;2.00;;;;;;;;;;4785893;30;20048;-56
2022/04/16 10:48:49;;;;;;;7.07;2.03;;;13.60;67.70;;;;;;4785529;30;20047;-57
2022/04/16 10:51:21;;;;;;;2.83;1.80;;;13.80;53.30;;;;;;4785643;30;20136;-56
2022/04/16 10:53:47;;;;;;;7.20;1.88;;;;;;;;;;4786565;30;20050;-56
2022/04/16 10:56:22;;;;;;;3.72;1.52;;;13.40;64.50;;;;;;4770072;30;20051;-58
2022/04/16 10:58:59;;;;;;;3.97;1.60;;;14.00;62.60;;;;;;4786543;30;20043;-57
2022/04/16 11:01:27;;;;;;;1.80;1.50;;;13.70;64.70;;;;;;4786047;30;20043;-58
2022/04/16 11:03:54;;;;;;;3.67;1.75;;;13.70;65.30;;;;;;4786355;30;20060;-57
2022/04/16 11:06:20;;;;;;;3.70;1.92;;;;;;;;;;4769462;30;20051;-57
2022/04/16 11:08:46;;;;;;;5.15;1.60;;;13.60;54.60;;;;;;4785334;30;20047;-57
2022/04/16 11:11:14;;;;;;;4.85;1.70;;;13.60;64.00;;;;;;4769740;30;20045;-57
2022/04/16 11:13:41;;;;;;;4.35;1.70;;;13.60;64.00;;;;;;4770119;30;20052;-57
2022/04/16 11:16:08;;;;;;;2.28;1.52;;;13.70;64.10;;;;;;4785916;30;20389;-57
2022/04/16 11:18:44;;;;;;;2.50;1.55;;;13.70;65.00;;;;;;4785561;30;20083;-57
2022/04/16 11:21:13;;;;;;;5.10;1.50;;;13.90;64.30;;;;;;4785606;30;20130;-57
2022/04/16 11:23:46;;;;;;;5.68;1.70;;;14.00;63.70;;;;;;4786352;30;20134;-57
2022/04/16 11:34:32;;;;;;;9.07;1.60;;;14.10;58.90;;;;;;4786272;30;20097;-56
2022/04/16 11:36:58;;;;;;;2.80;1.63;;;14.00;63.50;;;;;;4786158;30;20055;-55
2022/04/16 11:39:30;;;;;;;4.03;1.50;;;13.80;50.80;;;;;;4770103;30;20560;-55
2022/04/16 11:41:58;;;;;;;3.03;1.70;;;14.00;64.50;;;;;;4786260;30;20058;-56
2022/04/16 11:44:30;;;;;;;2.65;1.70;;;14.10;52.00;;;;;;4770252;30;20051;-56
2022/04/16 11:46:56;;;;;;;3.83;1.70;;;14.40;52.10;;;;;;4770049;30;20082;-55
2022/04/16 11:49:22;;;;;;;6.50;1.70;;;14.60;63.20;;;;;;4785834;30;20163;-57
2022/04/16 11:51:48;;;;;;;3.40;1.80;;;14.80;62.10;;;;;;4786205;30;20044;-58
2022/04/16 11:54:14;;;;;;;6.53;1.92;;;14.70;62.20;;;;;;4785493;30;20044;-56
2022/04/16 11:56:49;;;;;;;2.72;1.50;;;16.80;50.50;;;;;;4786032;30;20407;-55
2022/04/16 11:59:23;;;;;;;3.92;1.70;;;15.00;47.70;;;;;;4784505;30;20518;-55
2022/04/16 12:02:05;;;;;;;5.50;1.90;;;14.70;62.00;;;;;;4756739;30;20090;-56
2022/04/16 12:04:38;;;;;;;3.65;1.70;;;15.00;61.40;;;;;;4788851;30;20062;-55
2022/04/16 12:07:16;;;;;;;4.10;1.58;;;14.80;55.00;;;;;;4788604;30;20047;-56
2022/04/16 12:09:49;;;;;;;2.80;1.58;;;15.00;46.00;;;;;;4789382;30;20106;-56
2022/04/16 12:12:20;;;;;;;12.27;1.85;;;15.10;45.80;;;;;;4788687;30;20039;-56
2022/04/16 12:14:51;;;;;;;6.93;1.85;;;15.30;60.00;;;;;;4789265;30;20396;-56
2022/04/16 12:17:30;;;;;;;3.05;1.60;;;15.40;60.10;;;;;;4770792;30;20047;-57
2022/04/16 12:20:17;;;;;;;3.28;1.73;;;15.20;44.50;;;;;;4787371;30;20043;-56
2022/04/16 12:23:18;;;;;;;2.75;1.60;;;15.10;53.30;;;;;;4785899;30;20047;-56
2022/04/16 12:25:44;;;;;;;6.60;1.73;;;15.80;58.10;;;;;;4772633;30;20094;-56
2022/04/16 12:28:12;;;;;;;2.03;1.73;;;15.10;60.70;;;;;;4788535;30;20511;-56
2022/04/16 12:30:38;;;;;;;6.32;1.90;;;;;;;;;;4788710;30;20062;-56
2022/04/16 12:33:10;;;;;;;11.85;2.33;;;15.60;60.40;;;;;;4788579;30;20118;-57
2022/04/16 12:35:38;;;;;;;2.95;1.70;;;15.70;60.30;;;;;;4787533;30;20066;-58
2022/04/16 12:38:04;;;;;;;5.18;1.75;;;;;;;;;;4772340;30;20139;-58
2022/04/16 12:40:31;;;;;;;3.50;1.70;;;15.60;60.20;;;;;;4788249;30;20051;-58
2022/04/16 12:42:58;;;;;;;2.50;1.80;;;15.50;60.20;;;;;;4788244;30;20737;-57
2022/04/16 12:45:24;;;;;;;13.00;2.17;;;15.60;59.70;;;;;;4788110;30;20074;-58
2022/04/16 12:47:50;;;;;;;3.90;1.90;;;15.80;44.80;;;;;;4786851;30;20043;-58
2022/04/16 12:50:16;;;;;;;5.57;1.67;;;16.20;59.80;;;;;;4788230;30;20047;-58
2022/04/16 12:52:43;;;;;;;4.22;1.70;;;16.20;43.90;;;;;;4787383;30;20512;-58
2022/04/16 12:55:09;;;;;;;4.25;1.90;;;;;;;;;;4768756;30;20047;-58
2022/04/16 12:57:35;;;;;;;2.40;1.60;;;16.00;59.20;;;;;;4787633;30;20044;-58
2022/04/16 13:00:14;;;;;;;5.20;1.70;;;15.70;59.00;;;;;;4787982;30;20047;-58
2022/04/16 13:02:43;;;;;;;4.55;1.70;;;15.90;44.00;;;;;;4788075;30;20515;-59
2022/04/16 13:05:10;;;;;;;15.35;2.08;;;;;;;;;;4787778;30;20089;-58
2022/04/16 13:07:36;;;;;;;3.80;1.90;;;15.80;43.50;;;;;;4787800;30;20047;-58
2022/04/16 13:10:06;;;;;;;12.75;2.22;;;15.90;52.40;;;;;;4788018;30;20043;-58
2022/04/16 13:12:35;;;;;;;3.00;1.80;;;15.90;59.70;;;;;;4771447;30;20043;-58
2022/04/16 13:15:01;;;;;;;3.05;1.90;;;;;;;;;;4787915;30;20043;-58
2022/04/16 13:17:28;;;;;;;5.32;1.80;;;;;;;;;;4785994;30;20086;-58
2022/04/16 13:19:54;;;;;;;3.10;1.90;;;;;;;;;;4787878;30;20122;-58
2022/04/16 13:22:20;;;;;;;5.65;2.00;;;15.80;60.60;;;;;;4787093;30;20039;-58
2022/04/16 13:24:45;;;;;;;3.20;1.92;;;15.80;58.20;;;;;;4787496;30;20054;-58
2022/04/16 13:27:11;;;;;;;4.18;2.00;;;16.40;59.30;;;;;;4786501;30;20093;-58
2022/04/16 13:29:38;;;;;;;3.75;1.70;;;16.10;58.20;;;;;;4771382;30;20100;-59
2022/04/16 13:32:05;;;;;;;5.80;1.95;;;15.30;56.80;;;;;;4787578;30;20054;-59
2022/04/16 13:34:31;;;;;;;4.70;1.92;;;15.60;57.50;;;;;;4787402;30;20496;-58
2022/04/16 13:36:57;;;;;;;6.13;1.80;;;15.80;42.40;;;;;;4771323;30;20099;-59
2022/04/16 13:42:08;;;;;;;3.80;1.80;;;;;;;;;;4787090;30;20415;-59
2022/04/16 13:44:35;;;;;;;2.92;1.70;;;16.20;54.30;;;;;;4787608;30;20048;-59
2022/04/16 13:47:01;;;;;;;6.88;1.77;;;;;;;;;;4786876;30;20145;-59
2022/04/16 13:49:27;;;;;;;7.32;2.00;;;16.40;58.00;;;;;;4786953;30;20047;-59
2022/04/16 13:51:53;;;;;;;5.20;1.80;;;;;;;;;;4787306;30;20400;-58
2022/04/16 13:54:20;;;;;;;5.72;1.75;;;;;;;;;;4770683;30;20113;-58
2022/04/16 13:56:46;;;;;;;4.07;1.60;;;;;;;;;;4786756;30;20489;-59
2022/04/16 13:59:11;;;;;;;4.93;1.80;;;15.90;57.10;;;;;;4771115;30;20051;-58
2022/04/16 14:01:37;;;;;;;4.25;2.15;;;;;;;;;;4786810;30;20095;-63
2022/04/16 14:04:04;;;;;;;3.22;1.80;;;;;;;;;;4771497;30;20496;-62
2022/04/16 14:06:32;;;;;;;3.53;1.80;;;;;;;;;;4769766;30;20381;-63
2022/04/16 14:08:58;;;;;;;5.95;1.92;;;;;;;;;;4771024;30;20112;-64
2022/04/16 14:11:24;;;;;;;5.70;1.80;;;16.40;75.10;;;;;;4786696;30;20400;-64
2022/04/16 14:13:51;;;;;;;3.30;1.90;;;;;;;;;;4787083;30;20479;-63
2022/04/16 14:16:17;;;;;;;4.13;2.30;;;;;;;;;;4755176;30;20093;-63
2022/04/16 14:18:43;;;;;;;3.17;1.98;;;;;;;;;;4786935;30;20043;-63
2022/04/16 14:21:12;;;;;;;2.58;1.90;;;;;;;;;;4786168;30;20050;-61
2022/04/16 14:23:39;;;;;;;3.88;1.92;;;17.00;75.30;;;;;;4770115;30;20044;-60
2022/04/16 14:26:05;;;;;;;5.35;2.10;;;16.80;43.40;;;;;;4786732;30;20182;-61
2022/04/16 14:28:35;;;;;;;3.88;2.20;;;17.20;67.70;;;;;;4770093;30;20095;-59
2022/04/16 14:31:03;;;;;;;4.57;1.92;;;16.60;44.90;;;;;;4786931;30;20040;-59
2022/04/16 14:33:34;;;;;;;4.88;2.20;;;;;;;;;;4785146;30;20047;-60
2022/04/16 14:36:03;;;;;;;3.70;2.10;;;16.50;44.20;;;;;;4770829;30;20400;-59
2022/04/16 14:38:30;;;;;;;3.65;2.03;;;;;;;;;;4769945;30;20062;-59
2022/04/16 14:41:09;;;;;;;5.90;2.42;;;15.40;73.60;;;;;;4786823;30;20138;-59
2022/04/16 14:43:48;;;;;;;4.47;2.40;;;16.40;44.40;;;;;;4786646;30;20043;-59
2022/04/16 14:46:15;;;;;;;6.63;2.10;;;;;;;;;;4770151;30;20058;-59
2022/04/16 14:48:41;;;;;;;5.00;2.33;;;;;;;;;;4786552;30;20054;-59
2022/04/16 14:51:07;;;;;;;4.07;2.08;;;;;;;;;;4785996;30;20039;-60
2022/04/16 14:53:35;;;;;;;12.25;2.10;;;;;;;;;;4786742;30;20165;-59
2022/04/16 14:56:01;;;;;;;2.78;1.92;;;;;;;;;;4786429;30;20047;-59
2022/04/16 14:58:27;;;;;;;4.45;1.98;;;16.50;73.50;;;;;;4785333;30;20333;-59
2022/04/16 15:00:53;;;;;;;3.63;1.83;;;;;;;;;;4786357;30;20047;-59
2022/04/16 15:03:19;;;;;;;3.67;2.00;;;;;;;;;;4786082;30;20050;-59
2022/04/16 15:05:45;;;;;;;5.28;1.95;;;;;;;;;;4786791;30;20100;-58
2022/04/16 15:08:11;;;;;;;3.67;2.08;;;;;;;;;;4769048;30;20118;-58
2022/04/16 15:10:37;;;;;;;2.83;1.90;;;;;;;;;;4784584;30;20100;-59
2022/04/16 15:13:06;;;;;;;3.78;2.03;;;16.20;72.10;;;;;;4766436;30;20047;-60
2022/04/16 15:15:32;;;;;;;5.55;2.00;;;;;;;;;;4782847;30;20385;-59
2022/04/16 15:17:58;;;;;;;5.18;1.90;;;;;;;;;;4761699;30;20173;-59
2022/04/16 15:20:25;;;;;;;3.35;2.10;;;16.10;73.90;;;;;;4780973;30;20046;-59
2022/04/16 15:23:03;;;;;;;3.42;1.90;;;;;;;;;;4764523;30;20063;-58
2022/04/16 15:25:35;;;;;;;6.07;2.20;;;16.40;75.00;;;;;;4784791;30;20058;-59
2022/04/16 15:28:02;;;;;;;3.13;1.90;;;;;;;;;;4784896;30;20297;-59
2022/04/16 15:30:28;;;;;;;4.13;2.20;;;;;;;;;;4784117;30;20488;-59
2022/04/16 15:32:55;;;;;;;5.60;2.10;;;;;;;;;;4767543;30;20480;-59
2022/04/16 15:35:25;;;;;;;6.40;2.00;;;;;;;;;;4785979;29;20051;-59
2022/04/16 15:37:52;;;;;;;2.65;1.95;;;15.70;60.10;;;;;;4789489;30;20202;-59
2022/04/16 15:40:21;;;;;;;2.90;2.00;;;15.90;76.90;;;;;;4789129;30;20054;-60
2022/04/16 15:42:47;;;;;;;7.60;2.20;;;;;;;;;;4789114;30;20058;-59
2022/04/16 15:45:13;;;;;;;11.18;2.20;;;;;;;;;;4788392;30;20051;-60
2022/04/16 15:47:40;;;;;;;3.30;2.00;;;15.70;51.10;;;;;;4770198;30;20055;-59
2022/04/16 15:50:06;;;;;;;2.63;1.92;;;15.60;50.80;;;;;;4787697;30;20053;-59
2022/04/16 15:52:33;;;;;;;5.90;2.00;;;15.60;57.60;;;;;;4774075;30;20055;-60
2022/04/16 15:54:59;;;;;;;3.15;2.08;;;;;;;;;;4771162;30;20052;-60
2022/04/16 15:57:26;;;;;;;3.40;2.10;;;15.90;62.70;;;;;;4783628;30;20051;-60
2022/04/16 15:59:51;;;;;;;4.72;1.80;;;15.70;52.20;;;;;;4771501;30;20059;-59
2022/04/16 16:02:18;;;;;;;2.75;1.90;;;15.30;62.10;;;;;;4787160;30;20043;-59
2022/04/16 16:04:57;;;;;;;7.70;1.95;;;15.60;42.40;;;;;;4789508;30;20464;-59
2022/04/16 16:07:27;;;;;;;6.53;2.10;;;15.40;42.30;;;;;;4788252;30;20047;-61
2022/04/16 16:09:53;;;;;;;5.28;2.22;;;15.00;62.30;;;;;;4787779;30;20054;-61
2022/04/16 16:12:20;;;;;;;4.20;1.98;;;15.10;53.50;;;;;;4778201;30;20134;-61
2022/04/16 16:14:46;;;;;;;4.03;2.10;;;14.70;52.80;;;;;;4784178;30;20126;-61
2022/04/16 16:17:12;;;;;;;4.10;2.10;;;14.50;45.00;;;;;;4771606;30;20136;-61
2022/04/16 16:19:39;;;;;;;2.58;1.80;;;;;;;;;;4787767;30;20377;-61
2022/04/16 16:22:05;;;;;;;3.75;1.98;;;15.30;65.10;;;;;;4768093;30;20062;-61
2022/04/16 16:24:30;;;;;;;3.10;2.00;;;14.80;61.80;;;;;;4778646;30;20044;-61
2022/04/16 16:26:56;;;;;;;3.25;1.95;;;;;;;;;;4769095;30;20047;-61
2022/04/16 16:29:22;;;;;;;6.07;2.28;;;;;;;;;;4787534;30;20043;-61
2022/04/16 16:31:49;;;;;;;5.47;2.10;;;15.80;62.10;;;;;;4786573;30;20054;-61
2022/04/16 16:34:15;;;;;;;2.97;1.98;;;;;;;;;;4771955;30;20047;-60
2022/04/16 16:36:41;;;;;;;4.18;2.05;;;;;;;;;;4787845;30;20517;-61
2022/04/16 16:39:07;;;;;;;3.08;2.00;;;14.30;49.20;;;;;;4786865;29;20055;-60
2022/04/16 16:41:33;;;;;;;3.22;1.98;;;14.70;59.60;;;;;;4787734;30;20130;-60
2022/04/16 16:43:59;;;;;;;3.22;2.00;;;14.80;62.40;;;;;;4787234;30;20510;-60
2022/04/16 16:46:26;;;;;;;3.30;2.20;;;14.60;43.40;;;;;;4786696;29;20126;-61
2022/04/16 16:48:55;;;;;;;4.05;2.00;;;;;;;;;;4786986;30;20047;-60
2022/04/16 16:51:22;;;;;;;4.53;2.20;;;14.70;43.50;;;;;;4787355;29;20526;-60
2022/04/16 16:53:49;;;;;;;5.18;2.13;;;;;;;;;;4787450;29;20483;-60
2022/04/16 16:56:15;;;;;;;3.50;2.22;;;14.20;62.30;;;;;;4785351;30;20135;-60
2022/04/16 16:58:41;;;;;;;5.05;2.47;;;;;;;;;;4786862;30;20058;-61
2022/04/16 17:01:07;;;;;;;5.18;2.30;;;;;;;;;;4787395;30;20054;-57
2022/04/16 17:06:17;;;;;;;3.63;2.20;;;14.00;56.50;;;;;;4767829;30;20074;-57
2022/04/16 17:08:43;;;;;;;2.85;2.20;;;;;;;;;;4775066;30;20032;-57
2022/04/16 17:11:10;;;;;;;5.95;2.40;;;;;;;;;;4786924;29;20134;-57
2022/04/16 17:13:37;;;;;;;2.85;2.10;;;13.90;63.20;;;;;;4786806;30;20048;-57
2022/04/16 17:18:49;;;;;;;3.95;2.20;;;13.60;53.10;;;;;;4786929;30;20074;-57
2022/04/16 17:21:16;;;;;;;2.90;1.98;;;14.00;63.70;;;;;;4786940;30;20047;-57
2022/04/16 17:23:43;;;;;;;4.35;2.08;;;13.60;60.40;;;;;;4786644;30;20055;-57
2022/04/16 17:26:13;;;;;;;2.95;1.85;;;13.80;45.10;;;;;;4786699;30;20097;-57
2022/04/16 17:28:39;;;;;;;3.65;1.80;;;13.80;63.40;;;;;;4770354;30;20116;-57
2022/04/16 17:31:06;;;;;;;3.72;1.90;;;13.70;52.40;;;;;;4770625;30;20103;-57
2022/04/16 17:33:32;;;;;;;4.38;1.88;;;13.90;63.50;;;;;;4786669;30;20047;-57
2022/04/16 17:36:00;;;;;;;4.85;1.98;;;;;;;;;;4787446;30;20055;-57
2022/04/16 17:38:27;;;;;;;6.28;2.10;;;13.60;46.10;;;;;;4784729;30;20059;-57
2022/04/16 17:40:53;;;;;;;7.88;2.20;;;;;;;;;;4786713;30;20074;-57
2022/04/16 17:43:19;;;;;;;2.65;2.00;;;13.60;46.30;;;;;;4785803;30;20179;-57
2022/04/16 17:45:48;;;;;;;2.88;1.80;;;;;;;;;;4786515;30;20330;-57
2022/04/16 17:48:14;;;;;;;4.53;2.08;;;13.50;65.00;;;;;;4786290;30;20051;-57
2022/04/16 17:50:40;;;;;;;3.88;2.08;;;13.60;47.70;;;;;;4786868;30;20039;-57
2022/04/16 17:53:06;;;;;;;5.20;1.95;;;;;;;;;;4786555;30;20043;-57
2022/04/16 17:55:34;;;;;;;3.00;1.90;;;;;;;;;;4786334;30;20043;-58
2022/04/16 17:58:00;;;;;;;4.88;2.00;;;13.40;48.10;;;;;;4785681;29;20453;-57
2022/04/16 18:00:27;;;;;;;2.20;1.70;;;13.10;66.00;;;;;;4786110;29;20502;-57
2022/04/16 18:02:54;;;;;;;3.40;1.90;;;12.90;66.30;;;;;;4785441;30;20047;-57
2022/04/16 18:05:21;;;;;;;2.88;1.83;;;13.10;47.10;;;;;;4786045;29;20083;-57
2022/04/16 18:07:47;;;;;;;3.20;1.80;;;;;;;;;;4786053;29;20047;-57
2022/04/16 18:10:15;;;;;;;3.28;1.90;;;13.30;67.30;;;;;;4785916;30;20046;-57
2022/04/16 18:12:42;;;;;;;5.47;2.05;;;;;;;;;;4785824;29;20062;-57
2022/04/16 18:15:09;;;;;;;3.40;2.00;;;12.80;48.00;;;;;;4785099;30;20054;-58
2022/04/16 18:17:39;;;;;;;3.47;1.80;;;12.50;66.90;;;;;;4784709;30;20051;-57
2022/04/16 18:20:10;;;;;;;2.95;2.05;;;12.70;67.50;;;;;;4786757;29;20458;-57
2022/04/16 18:22:38;;;;;;;6.55;2.03;;;12.40;52.40;;;;;;4785822;29;20385;-57
2022/04/16 18:25:07;;;;;;;3.90;1.95;;;12.70;68.00;;;;;;4785304;30;20143;-57
2022/04/16 18:27:33;;;;;;;4.32;2.10;;;;;;;;;;4784927;29;20051;-57
2022/04/16 18:30:01;;;;;;;4.07;2.25;;;;;;;;;;4786165;29;20138;-57
2022/04/16 18:32:28;;;;;;;4.47;1.85;;;12.30;49.50;;;;;;4785474;29;20562;-57
2022/04/16 18:34:54;;;;;;;3.90;2.10;;;12.30;49.60;;;;;;4786340;30;20043;-57
2022/04/16 18:37:20;;;;;;;4.03;1.88;;;12.40;69.50;;;;;;4769292;30;20051;-57
2022/04/16 18:39:46;;;;;;;3.60;1.90;;;12.00;69.00;;;;;;4785516;30;20499;-57
2022/04/16 18:42:14;;;;;;;4.15;2.10;;;11.90;68.60;;;;;;4785675;30;20396;-57
2022/04/16 18:44:40;;;;;;;3.33;1.90;;;;;;;;;;4784308;30;20043;-59
2022/04/16 18:47:06;;;;;;;3.10;2.00;;;11.80;70.10;;;;;;4785899;30;20051;-58
2022/04/16 18:49:32;;;;;;;2.85;1.90;;;11.90;65.90;;;;;;4785798;30;20076;-59
2022/04/16 18:51:58;;;;;;;2.78;2.00;;;12.10;61.30;;;;;;4785477;30;20155;-59
2022/04/16 18:54:24;;;;;;;4.35;2.20;;;11.50;69.80;;;;;;4785459;30;20477;-58
2022/04/16 18:56:52;;;;;;;3.45;2.17;;;11.80;70.80;;;;;;4784285;30;20065;-58
2022/04/16 18:59:18;;;;;;;3.67;2.10;;;11.30;53.80;;;;;;4784854;30;20058;-58
2022/04/16 19:07:18;;;;;;;4.20;2.00;;;;;;;;;;4747569;30;20099;-58
2022/04/16 19:09:44;;;;;;;2.97;2.08;;;;;;;;;;4747720;30;20052;-58
2022/04/16 19:12:12;;;;;;;3.90;2.20;;;;;;;;;;4736086;30;20051;-58
2022/04/16 19:14:39;;;;;;;4.07;2.33;;;11.30;52.50;;;;;;4751464;30;20040;-58
2022/04/16 19:17:06;;;;;;;4.65;2.30;;;11.20;72.90;;;;;;4751629;30;20052;-58
2022/04/16 19:19:37;;;;;;;4.45;2.30;;;;;;;;;;4750861;30;20572;-59
2022/04/16 19:22:03;;;;;;;3.65;2.08;;;11.00;74.20;;;;;;4751511;30;20067;-58
2022/04/16 19:24:33;;;;;;;6.53;2.20;;;;;;;;;;4751040;30;20509;-58
2022/04/16 19:26:59;;;;;;;5.03;2.30;;;11.00;74.20;;;;;;4755836;30;20044;-58
2022/04/16 19:29:25;;;;;;;4.07;2.50;;;10.90;60.40;;;;;;4768654;30;20098;-58
2022/04/16 19:31:52;;;;;;;5.35;2.55;;;;;;;;;;4768578;30;20174;-58
2022/04/16 19:34:17;;;;;;;5.10;2.58;;;11.00;64.80;;;;;;4768720;30;20062;-58
2022/04/16 19:36:43;;;;;;;4.60;2.30;;;11.50;75.90;;;;;;4768880;30;20449;-58
2022/04/16 19:39:09;;;;;;;6.50;2.50;;;;;;;;;;4768756;30;20098;-58
2022/04/16 19:41:34;;;;;;;5.03;2.40;;;11.20;69.80;;;;;;4778850;30;20051;-58
2022/04/16 19:44:00;;;;;;;5.00;2.38;;;10.70;75.40;;;;;;4788469;30;20091;-58
2022/04/16 19:46:26;;;;;;;4.47;2.63;;;;;;;;;;4788097;30;20368;-59
2022/04/16 19:48:53;;;;;;;4.32;2.47;;;10.50;76.40;;;;;;4787484;30;20491;-58
2022/04/16 19:51:20;;;;;;;5.72;2.70;;;10.30;76.50;;;;;;4788209;29;20055;-58
2022/04/16 19:53:46;;;;;;;4.93;2.65;;;;;;;;;;4789001;29;20055;-58
2022/04/16 19:56:12;;;;;;;4.20;2.78;;;;;;;;;;4788495;30;20051;-61
2022/04/16 19:58:38;;;;;;;4.10;2.33;;;10.40;76.30;;;;;;4787739;30;20450;-61
2022/04/16 20:01:04;;;;;;;5.18;2.83;;;10.40;76.60;;;;;;4788677;29;20039;-61
2022/04/16 20:03:32;;;;;;;4.10;2.80;;;10.30;73.30;;;;;;4788230;29;20043;-60
2022/04/16 20:06:02;;;;;;;4.88;2.70;;;10.30;56.10;;;;;;4787689;30;20416;-61
2022/04/16 20:11:14;;;;;;;3.72;2.60;;;10.20;75.80;;;;;;4786430;30;20049;-61
2022/04/16 20:13:40;;;;;;;6.90;3.30;;;9.30;56.30;;;;;;4787122;30;20093;-61
2022/04/16 20:16:06;;;;;;;8.05;2.55;;;9.80;78.10;;;;;;4787992;30;20100;-61
2022/04/16 20:18:32;;;;;;;5.22;3.10;;;10.10;66.40;;;;;;4771034;30;20473;-61
2022/04/16 20:21:02;;;;;;;5.90;3.17;;;10.10;64.60;;;;;;4788362;29;20055;-61
2022/04/16 20:23:29;;;;;;;4.32;2.90;;;10.10;79.20;;;;;;4787301;30;20063;-61
2022/04/16 20:25:56;;;;;;;5.38;3.25;;;;;;;;;;4788111;30;20567;-61
2022/04/16 20:28:22;;;;;;;7.03;3.45;;;;;;;;;;4788510;30;20069;-61
2022/04/16 20:30:48;;;;;;;4.38;3.00;;;;;;;;;;4789268;30;20051;-61
2022/04/16 20:33:14;;;;;;;5.65;3.20;;;10.40;81.10;;;;;;4788316;30;20087;-61
2022/04/16 20:35:40;;;;;;;7.90;3.78;;;9.80;81.10;;;;;;4788896;30;20066;-57
2022/04/16 20:38:08;;;;;;;7.50;3.88;;;9.90;69.40;;;;;;4788872;30;20062;-58
2022/04/16 20:46:03;;;;;;;7.15;5.03;;;;;;;;;;4788426;30;20404;-57
2022/04/16 20:48:29;;;;;;;8.82;4.93;;;9.30;68.50;;;;;;4788510;30;20104;-57
2022/04/16 20:53:40;;;;;;;9.10;5.47;;;9.00;82.30;;;;;;4788988;30;20104;-57
2022/04/16 20:56:06;;;;;;;8.32;6.00;;;9.20;86.30;;;;;;4788547;30;20118;-57
2022/04/16 20:58:32;;;;;;;20.92;6.18;;;9.10;86.10;;;;;;4788516;30;20047;-57
2022/04/16 21:00:58;;;;;;;12.15;5.90;;;;;;;;;;4787752;30;20055;-57
2022/04/16 21:03:25;;;;;;;11.93;6.35;;;9.10;83.70;;;;;;4788048;30;20412;-57
2022/04/16 21:05:51;;;;;;;9.25;6.25;;;9.10;84.00;;;;;;4788223;30;20400;-57
2022/04/16 21:08:17;;;;;;;9.98;6.57;;;;;;;;;;4787808;30;20073;-57
2022/04/16 21:10:43;;;;;;;10.35;7.10;;;9.50;90.10;;;;;;4788330;30;20043;-57
2022/04/16 21:13:09;;;;;;;9.63;6.75;;;;;;;;;;4787785;30;20124;-57
2022/04/16 21:15:35;;;;;;;11.30;6.90;;;;;;;;;;4788108;30;20087;-57
2022/04/16 21:18:01;;;;;;;11.50;6.85;;;8.60;91.20;;;;;;4788043;30;20048;-57
2022/04/16 21:20:27;;;;;;;14.00;7.68;;;8.60;91.10;;;;;;4771777;30;20127;-57
2022/04/16 21:22:53;;;;;;;15.63;7.63;;;8.50;91.90;;;;;;4787847;30;20047;-57
2022/04/16 21:25:22;;;;;;;15.55;8.13;;;9.80;76.00;;;;;;4787846;30;20051;-57
2022/04/16 21:27:49;;;;;;;14.27;8.80;;;8.60;73.80;;;;;;4788055;30;20119;-57
2022/04/16 21:30:17;;;;;;;15.30;9.10;;;;;;;;;;4786952;30;20046;-58
2022/04/16 21:32:43;;;;;;;18.33;10.02;;;8.40;93.10;;;;;;4787725;29;20058;-57
2022/04/16 21:35:09;;;;;;;15.60;9.65;;;8.60;75.70;;;;;;4787701;30;20048;-57
2022/04/16 21:37:35;;;;;;;17.83;9.45;;;;;;;;;;4787367;30;20046;-57
2022/04/16 21:40:01;;;;;;;15.27;9.40;;;8.40;77.00;;;;;;4788086;30;20055;-57
2022/04/16 21:42:28;;;;;;;14.07;9.32;;;8.60;94.80;;;;;;4787370;30;20055;-57
2022/04/16 21:44:54;;;;;;;15.25;8.82;;;9.10;94.90;;;;;;4787647;30;20043;-57
2022/04/16 21:47:19;;;;;;;18.75;8.95;;;8.50;95.50;;;;;;4786944;30;20414;-57
2022/04/16 21:49:45;;;;;;;13.25;8.07;;;8.50;87.70;;;;;;4787773;30;20043;-57
2022/04/16 21:52:11;;;;;;;15.70;8.32;;;;;;;;;;4771322;30;20502;-57
2022/04/16 21:54:37;;;;;;;17.75;8.75;;;;;;;;;;4787515;30;20519;-57
2022/04/16 21:57:03;;;;;;;13.10;8.70;;;8.20;96.50;;;;;;4787496;30;20122;-57
2022/04/16 21:59:29;;;;;;;13.02;8.60;;;8.40;94.20;;;;;;4786630;30;20637;-57
2022/04/16 22:01:55;;;;;;;17.08;8.30;;;;;;;;;;4787154;30;20047;-57
2022/04/16 22:04:24;;;;;;;13.98;8.77;;;8.20;97.50;;;;;;4787249;30;20058;-57
2022/04/16 22:06:51;;;;;;;12.93;8.30;;;8.30;98.10;;;;;;4787231;30;20054;-57
2022/04/16 22:09:19;;;;;;;12.70;8.50;;;8.10;86.90;;;;;;4787125;30;20040;-57
2022/04/16 22:11:45;;;;;;;13.27;8.63;;;8.00;98.80;;;;;;4787064;30;20484;-57
2022/04/16 22:14:12;;;;;;;12.57;8.25;;;8.10;99.10;;;;;;4755685;30;20051;-57
2022/04/16 22:16:38;;;;;;;11.00;7.75;;;8.40;99.90;;;;;;4787410;30;20511;-57